Time,TemperatureF,DewpointF,PressureIn,WindDirection,WindDirectionDegrees,WindSpeedMPH,WindSpeedGustMPH,Humidity,HourlyPrecipIn,Conditions,Clouds,dailyrainin,SoftwareType,DateUTC
2013-03-13 00:02:00,18.0,14.0,-100.00,NW,325,15.0,21.0,81,0.00,,,0.00,,2013-03-13 05:02:00,
2013-03-13 00:12:00,18.0,14.0,-100.00,NW,320,13.0,19.0,81,0.00,,,0.00,,2013-03-13 05:12:00,
2013-03-13 00:22:00,18.0,12.0,-100.00,NW,320,14.0,17.0,81,0.00,,,0.00,,2013-03-13 05:22:00,
2013-03-13 00:32:00,17.0,12.0,-100.00,NW,315,16.0,18.0,82,0.00,,,0.00,,2013-03-13 05:32:00,
2013-03-13 00:42:00,17.0,12.0,-100.00,NW,320,14.0,19.0,82,0.00,,,0.00,,2013-03-13 05:42:00,
2013-03-13 00:52:00,17.0,12.0,-100.00,NW,315,14.0,17.0,83,0.00,,,0.00,,2013-03-13 05:52:00,
2013-03-13 01:02:00,16.0,12.0,-100.00,NW,310,13.0,16.0,84,0.00,,,0.00,,2013-03-13 06:02:00,
2013-03-13 01:12:00,16.0,12.0,-100.00,NW,315,12.0,16.0,85,0.00,,,0.00,,2013-03-13 06:12:00,
2013-03-13 01:22:00,15.0,12.0,-100.00,NW,315,11.0,14.0,85,0.00,,,0.00,,2013-03-13 06:22:00,
2013-03-13 01:32:00,14.0,10.0,-100.00,NW,315,9.0,14.0,86,0.00,,,0.00,,2013-03-13 06:32:00,
2013-03-13 01:42:00,14.0,10.0,-100.00,NW,310,11.0,12.0,86,0.00,,,0.00,,2013-03-13 06:42:00,
2013-03-13 01:52:00,14.0,10.0,-100.00,NW,315,10.0,12.0,87,0.00,,,0.00,,2013-03-13 06:52:00,
2013-03-13 02:02:00,13.0,10.0,-100.00,NW,310,10.0,12.0,87,0.00,,,0.00,,2013-03-13 07:02:00,
2013-03-13 02:12:00,14.0,10.0,-100.00,NW,315,11.0,14.0,88,0.00,,,0.00,,2013-03-13 07:12:00,
2013-03-13 02:22:00,13.0,10.0,-100.00,NW,310,12.0,14.0,88,0.00,,,0.00,,2013-03-13 07:22:00,
2013-03-13 02:32:00,13.0,10.0,-100.00,NW,310,11.0,14.0,88,0.00,,,0.00,,2013-03-13 07:32:00,
2013-03-13 02:42:00,13.0,10.0,-100.00,NW,310,10.0,12.0,89,0.00,,,0.00,,2013-03-13 07:42:00,
2013-03-13 02:52:00,13.0,10.0,-100.00,NW,310,11.0,13.0,89,0.00,,,0.00,,2013-03-13 07:52:00,
2013-03-13 03:03:00,13.0,10.0,-100.00,NW,305,12.0,14.0,89,0.00,,,0.00,,2013-03-13 08:03:00,
2013-03-13 03:12:00,13.0,10.0,-100.00,NW,305,12.0,14.0,90,0.00,,,0.00,,2013-03-13 08:12:00,
2013-03-13 03:22:00,13.0,10.0,-100.00,NW,305,13.0,16.0,90,0.00,,,0.00,,2013-03-13 08:22:00,
2013-03-13 03:32:00,13.0,10.0,-100.00,NW,305,12.0,16.0,90,0.00,,,0.00,,2013-03-13 08:32:00,
2013-03-13 03:42:00,13.0,10.0,-100.00,NW,305,13.0,16.0,90,0.00,,,0.00,,2013-03-13 08:42:00,
2013-03-13 03:52:00,12.0,10.0,-100.00,NW,315,10.0,13.0,90,0.00,,,0.00,,2013-03-13 08:52:00,
2013-03-13 04:02:00,12.0,10.0,-100.00,NW,315,10.0,13.0,90,0.00,,,0.00,,2013-03-13 09:02:00,
2013-03-13 04:12:00,12.0,10.0,-100.00,NW,315,10.0,13.0,90,0.00,,,0.00,,2013-03-13 09:12:00,
2013-03-13 04:22:00,12.0,10.0,-100.00,NW,315,10.0,13.0,90,0.00,,,0.00,,2013-03-13 09:22:00,
2013-03-13 04:32:00,12.0,10.0,-100.00,NW,315,10.0,13.0,90,0.00,,,0.00,,2013-03-13 09:32:00,
2013-03-13 05:02:00,11.0,9.0,-100.00,NW,305,11.0,12.0,92,0.00,,,0.00,,2013-03-13 10:02:00,
2013-03-13 05:12:00,11.0,9.0,-100.00,NW,310,11.0,13.0,92,0.00,,,0.00,,2013-03-13 10:12:00,
2013-03-13 05:22:00,11.0,9.0,-100.00,NW,310,11.0,12.0,92,0.00,,,0.00,,2013-03-13 10:22:00,
2013-03-13 05:32:00,10.0,9.0,-100.00,NW,305,11.0,12.0,92,0.00,,,0.00,,2013-03-13 10:32:00,
2013-03-13 05:42:00,11.0,9.0,-100.00,NW,305,11.0,13.0,92,0.00,,,0.00,,2013-03-13 10:42:00,
2013-03-13 05:52:00,11.0,9.0,-100.00,NW,310,11.0,15.0,93,0.00,,,0.00,,2013-03-13 10:52:00,
2013-03-13 06:02:00,11.0,9.0,-100.00,NW,310,11.0,13.0,93,0.00,,,0.00,,2013-03-13 11:02:00,
2013-03-13 06:12:00,10.0,9.0,-100.00,NW,310,11.0,13.0,93,0.00,,,0.00,,2013-03-13 11:12:00,
2013-03-13 06:22:00,10.0,9.0,-100.00,NW,315,9.0,12.0,93,0.00,,,0.00,,2013-03-13 11:22:00,
2013-03-13 06:32:00,9.0,9.0,-100.00,NW,315,9.0,11.0,93,0.00,,,0.00,,2013-03-13 11:32:00,
2013-03-13 06:42:00,9.0,7.0,-100.00,NW,310,7.0,10.0,93,0.00,,,0.00,,2013-03-13 11:42:00,
2013-03-13 06:52:00,9.0,9.0,-100.00,NW,315,7.0,9.0,93,0.00,,,0.00,,2013-03-13 11:52:00,
2013-03-13 07:02:00,9.0,7.0,-100.00,WNW,300,8.0,9.0,93,0.00,,,0.00,,2013-03-13 12:02:00,
2013-03-13 07:12:00,9.0,9.0,-100.00,WNW,300,8.0,9.0,94,0.00,,,0.00,,2013-03-13 12:12:00,
2013-03-13 07:22:00,8.0,7.0,-100.00,WNW,295,6.0,7.0,94,0.00,,,0.00,,2013-03-13 12:22:00,
2013-03-13 07:32:00,8.0,7.0,-100.00,WNW,295,3.0,6.0,93,0.00,,,0.00,,2013-03-13 12:32:00,
2013-03-13 07:42:00,8.0,7.0,-100.00,WNW,295,3.0,4.0,94,0.00,,,0.00,,2013-03-13 12:42:00,
2013-03-13 07:52:00,8.0,7.0,-100.00,WNW,290,6.0,6.0,94,0.00,,,0.00,,2013-03-13 12:52:00,
2013-03-13 08:02:00,8.0,7.0,-100.00,WNW,285,6.0,7.0,94,0.00,,,0.00,,2013-03-13 13:02:00,
2013-03-13 08:11:00,8.0,7.0,-100.00,WNW,285,6.0,7.0,94,0.00,,,0.00,,2013-03-13 13:11:00,
2013-03-13 08:22:00,9.0,7.0,-100.00,West,270,6.0,8.0,94,0.00,,,0.00,,2013-03-13 13:22:00,
2013-03-13 08:33:00,10.0,9.0,-100.00,WNW,290,4.0,6.0,94,0.00,,,0.00,,2013-03-13 13:33:00,
2013-03-13 08:42:00,9.0,9.0,-100.00,West,270,4.0,6.0,94,0.00,,,0.00,,2013-03-13 13:42:00,
2013-03-13 08:52:00,10.0,9.0,-100.00,West,280,6.0,7.0,94,0.00,,,0.00,,2013-03-13 13:52:00,
2013-03-13 09:02:00,10.0,9.0,-100.00,WNW,285,7.0,8.0,93,0.00,,,0.00,,2013-03-13 14:02:00,
2013-03-13 09:12:00,10.0,9.0,-100.00,WNW,290,7.0,7.0,93,0.00,,,0.00,,2013-03-13 14:12:00,
2013-03-13 09:21:00,10.0,9.0,-100.00,WNW,295,7.0,9.0,92,0.00,,,0.00,,2013-03-13 14:21:00,
2013-03-13 09:33:00,11.0,9.0,-100.00,NW,305,6.0,7.0,92,0.00,,,0.00,,2013-03-13 14:33:00,
2013-03-13 09:42:00,12.0,10.0,-100.00,NW,310,7.0,8.0,91,0.00,,,0.00,,2013-03-13 14:42:00,
2013-03-13 09:52:00,12.0,10.0,-100.00,NW,310,6.0,9.0,91,0.00,,,0.00,,2013-03-13 14:52:00,
2013-03-13 10:03:00,13.0,10.0,-100.00,NW,310,7.0,9.0,90,0.00,,,0.00,,2013-03-13 15:03:00,
2013-03-13 10:12:00,13.0,10.0,-100.00,WNW,300,7.0,9.0,90,0.00,,,0.00,,2013-03-13 15:12:00,
2013-03-13 10:22:00,14.0,10.0,-100.00,WNW,300,7.0,9.0,89,0.00,,,0.00,,2013-03-13 15:22:00,
2013-03-13 10:32:00,14.0,10.0,-100.00,NW,305,7.0,9.0,88,0.00,,,0.00,,2013-03-13 15:32:00,
2013-03-13 10:42:00,15.0,12.0,-100.00,WNW,295,6.0,8.0,87,0.00,,,0.00,,2013-03-13 15:42:00,
2013-03-13 10:52:00,16.0,12.0,-100.00,WNW,295,6.0,8.0,86,0.00,,,0.00,,2013-03-13 15:52:00,
2013-03-13 11:02:00,17.0,12.0,-100.00,WNW,295,5.0,7.0,85,0.00,,,0.00,,2013-03-13 16:02:00,
2013-03-13 11:12:00,17.0,14.0,-100.00,NW,305,4.0,6.0,84,0.00,,,0.00,,2013-03-13 16:12:00,
2013-03-13 11:22:00,18.0,14.0,-100.00,West,280,4.0,5.0,82,0.00,,,0.00,,2013-03-13 16:22:00,
2013-03-13 11:32:00,19.0,14.0,-100.00,WNW,290,4.0,6.0,80,0.00,,,0.00,,2013-03-13 16:32:00,
2013-03-13 11:42:00,19.0,14.0,-100.00,WNW,290,4.0,5.0,79,0.00,,,0.00,,2013-03-13 16:42:00,
2013-03-13 11:52:00,20.0,14.0,-100.00,WNW,290,2.0,4.0,78,0.00,,,0.00,,2013-03-13 16:52:00,
2013-03-13 12:02:00,21.0,14.0,-100.00,WSW,245,4.0,5.0,76,0.00,,,0.00,,2013-03-13 17:02:00,
2013-03-13 12:12:00,21.0,14.0,-100.00,West,260,3.0,4.0,74,0.00,,,0.00,,2013-03-13 17:12:00,
2013-03-13 12:22:00,21.0,14.0,-100.00,West,265,4.0,5.0,73,0.00,,,0.00,,2013-03-13 17:22:00,
2013-03-13 12:32:00,22.0,16.0,-100.00,West,270,4.0,6.0,74,0.00,,,0.00,,2013-03-13 17:32:00,
2013-03-13 12:42:00,22.0,14.0,-100.00,West,270,4.0,5.0,73,0.00,,,0.00,,2013-03-13 17:42:00,
2013-03-13 12:53:00,23.0,16.0,-100.00,WNW,285,4.0,6.0,73,0.00,,,0.00,,2013-03-13 17:53:00,
2013-03-13 13:02:00,24.0,16.0,-100.00,WNW,300,4.0,6.0,72,0.00,,,0.00,,2013-03-13 18:02:00,
2013-03-13 13:12:00,24.0,16.0,-100.00,West,270,5.0,7.0,72,0.00,,,0.00,,2013-03-13 18:12:00,
2013-03-13 13:22:00,23.0,16.0,-100.00,West,270,9.0,9.0,74,0.00,,,0.00,,2013-03-13 18:22:00,
2013-03-13 13:33:00,23.0,16.0,-100.00,West,265,8.0,10.0,75,0.00,,,0.00,,2013-03-13 18:33:00,
2013-03-13 13:42:00,24.0,18.0,-100.00,West,265,6.0,9.0,74,0.00,,,0.00,,2013-03-13 18:42:00,
2013-03-13 13:52:00,24.0,18.0,-100.00,West,265,9.0,10.0,74,0.00,,,0.00,,2013-03-13 18:52:00,
2013-03-13 14:02:00,24.0,18.0,-100.00,West,265,9.0,12.0,75,0.00,,,0.00,,2013-03-13 19:02:00,
2013-03-13 14:12:00,23.0,18.0,-100.00,WSW,255,11.0,12.0,76,0.00,,,0.00,,2013-03-13 19:12:00,
2013-03-13 14:22:00,23.0,18.0,-100.00,West,260,9.0,12.0,76,0.00,,,0.00,,2013-03-13 19:22:00,
2013-03-13 14:32:00,23.0,18.0,-100.00,West,260,7.0,11.0,76,0.00,,,0.00,,2013-03-13 19:32:00,
2013-03-13 14:43:00,24.0,18.0,-100.00,West,260,5.0,9.0,75,0.00,,,0.00,,2013-03-13 19:43:00,
2013-03-13 14:52:00,25.0,18.0,-100.00,WSW,255,4.0,6.0,73,0.00,,,0.00,,2013-03-13 19:52:00,
2013-03-13 15:02:00,25.0,18.0,-100.00,WSW,255,4.0,7.0,73,0.00,,,0.00,,2013-03-13 20:02:00,
2013-03-13 15:12:00,25.0,18.0,-100.00,West,260,5.0,6.0,73,0.00,,,0.00,,2013-03-13 20:12:00,
2013-03-13 15:22:00,25.0,18.0,-100.00,West,265,5.0,7.0,73,0.00,,,0.00,,2013-03-13 20:22:00,
2013-03-13 15:32:00,26.0,18.0,-100.00,WSW,255,3.0,6.0,72,0.00,,,0.00,,2013-03-13 20:32:00,
2013-03-13 15:42:00,25.0,18.0,-100.00,West,270,6.0,7.0,71,0.00,,,0.00,,2013-03-13 20:42:00,
2013-03-13 15:52:00,26.0,18.0,-100.00,West,260,5.0,7.0,71,0.00,,,0.00,,2013-03-13 20:52:00,
2013-03-13 16:02:00,26.0,18.0,-100.00,West,265,9.0,10.0,72,0.00,,,0.00,,2013-03-13 21:02:00,
2013-03-13 16:12:00,25.0,18.0,-100.00,West,265,9.0,11.0,72,0.00,,,0.00,,2013-03-13 21:12:00,
2013-03-13 16:22:00,26.0,18.0,-100.00,West,265,8.0,10.0,72,0.00,,,0.00,,2013-03-13 21:22:00,
2013-03-13 16:33:00,26.0,18.0,-100.00,West,260,7.0,9.0,71,0.00,,,0.00,,2013-03-13 21:33:00,
2013-03-13 16:42:00,26.0,18.0,-100.00,West,260,7.0,9.0,71,0.00,,,0.00,,2013-03-13 21:42:00,
2013-03-13 16:52:00,26.0,18.0,-100.00,West,270,8.0,9.0,71,0.00,,,0.00,,2013-03-13 21:52:00,
2013-03-13 17:02:00,26.0,18.0,-100.00,West,265,9.0,10.0,73,0.00,,,0.00,,2013-03-13 22:02:00,
2013-03-13 17:12:00,26.0,19.0,-100.00,West,265,7.0,10.0,73,0.00,,,0.00,,2013-03-13 22:12:00,
2013-03-13 17:22:00,29.0,19.0,-100.00,SSW,195,7.0,9.0,70,0.00,,,0.00,,2013-03-13 22:22:00,
2013-03-13 17:32:00,29.0,19.0,-100.00,SSW,200,7.0,9.0,68,0.00,,,0.00,,2013-03-13 22:32:00,
2013-03-13 17:42:00,29.0,19.0,-100.00,South,185,6.0,9.0,67,0.00,,,0.00,,2013-03-13 22:42:00,
2013-03-13 17:52:00,27.0,18.0,-100.00,SSW,205,6.0,8.0,67,0.00,,,0.00,,2013-03-13 22:52:00,
2013-03-13 18:02:00,27.0,18.0,-100.00,SSW,200,7.0,9.0,67,0.00,,,0.00,,2013-03-13 23:02:00,
2013-03-13 18:12:00,27.0,18.0,-100.00,SW,220,7.0,9.0,67,0.00,,,0.00,,2013-03-13 23:12:00,
2013-03-13 18:22:00,26.0,18.0,-100.00,SW,215,7.0,9.0,67,0.00,,,0.00,,2013-03-13 23:22:00,
2013-03-13 18:32:00,25.0,18.0,-100.00,SSW,210,7.0,9.0,69,0.00,,,0.00,,2013-03-13 23:32:00,
2013-03-13 18:42:00,24.0,16.0,-100.00,SSW,200,7.0,8.0,71,0.00,,,0.00,,2013-03-13 23:42:00,
2013-03-13 18:52:00,24.0,16.0,-100.00,SSW,195,6.0,9.0,73,0.00,,,0.00,,2013-03-13 23:52:00,
2013-03-13 19:02:00,24.0,16.0,-100.00,SSW,210,5.0,7.0,74,0.00,,,0.00,,2013-03-14 00:02:00,
2013-03-13 19:12:00,23.0,16.0,-100.00,SW,215,6.0,6.0,75,0.00,,,0.00,,2013-03-14 00:12:00,
2013-03-13 19:22:00,23.0,18.0,-100.00,SW,220,5.0,7.0,77,0.00,,,0.00,,2013-03-14 00:22:00,
2013-03-13 19:32:00,22.0,18.0,-100.00,SSW,210,6.0,7.0,78,0.00,,,0.00,,2013-03-14 00:32:00,
2013-03-13 19:42:00,22.0,16.0,-100.00,SSW,195,4.0,7.0,79,0.00,,,0.00,,2013-03-14 00:42:00,
2013-03-13 19:52:00,22.0,16.0,-100.00,SW,220,4.0,5.0,80,0.00,,,0.00,,2013-03-14 00:52:00,
2013-03-13 20:02:00,22.0,18.0,-100.00,SW,215,4.0,6.0,81,0.00,,,0.00,,2013-03-14 01:02:00,
2013-03-13 20:12:00,22.0,18.0,-100.00,SSW,205,4.0,6.0,82,0.00,,,0.00,,2013-03-14 01:12:00,
2013-03-13 20:22:00,22.0,18.0,-100.00,SSW,195,3.0,4.0,82,0.00,,,0.00,,2013-03-14 01:22:00,
2013-03-13 20:32:00,21.0,18.0,-100.00,SSE,165,3.0,4.0,83,0.00,,,0.00,,2013-03-14 01:32:00,
2013-03-13 20:42:00,22.0,18.0,-100.00,SSE,165,2.0,3.0,83,0.00,,,0.00,,2013-03-14 01:42:00,
2013-03-13 20:52:00,21.0,18.0,-100.00,South,170,2.0,3.0,84,0.00,,,0.00,,2013-03-14 01:52:00,
2013-03-13 21:02:00,21.0,18.0,-100.00,South,175,2.0,3.0,84,0.00,,,0.00,,2013-03-14 02:02:00,
2013-03-13 21:12:00,21.0,18.0,-100.00,SSE,155,2.0,4.0,84,0.00,,,0.00,,2013-03-14 02:12:00,
2013-03-13 21:22:00,21.0,18.0,-100.00,SSE,155,3.0,4.0,85,0.00,,,0.00,,2013-03-14 02:22:00,
2013-03-13 21:32:00,21.0,18.0,-100.00,SE,145,4.0,6.0,86,0.00,,,0.00,,2013-03-14 02:32:00,
2013-03-13 21:42:00,21.0,18.0,-100.00,SE,145,4.0,6.0,86,0.00,,,0.00,,2013-03-14 02:42:00,
2013-03-13 21:51:00,21.0,18.0,-100.00,SE,145,4.0,6.0,86,0.00,,,0.00,,2013-03-14 02:51:00,
2013-03-13 22:02:00,21.0,18.0,-100.00,SSE,150,4.0,4.0,86,0.00,,,0.00,,2013-03-14 03:02:00,
2013-03-13 22:12:00,21.0,18.0,-100.00,SE,140,3.0,3.0,86,0.00,,,0.00,,2013-03-14 03:12:00,
2013-03-13 22:22:00,22.0,18.0,-100.00,SE,145,4.0,4.0,86,0.00,,,0.00,,2013-03-14 03:22:00,
2013-03-13 22:32:00,22.0,18.0,-100.00,SSE,150,4.0,5.0,86,0.00,,,0.00,,2013-03-14 03:32:00,
2013-03-13 22:42:00,22.0,19.0,-100.00,SE,145,3.0,5.0,86,0.00,,,0.00,,2013-03-14 03:42:00,
2013-03-13 22:52:00,22.0,19.0,-100.00,SE,135,4.0,5.0,86,0.00,,,0.00,,2013-03-14 03:52:00,
2013-03-13 23:12:00,22.0,19.0,-100.00,SE,140,3.0,6.0,86,0.00,,,0.00,,2013-03-14 04:12:00,
2013-03-13 23:22:00,23.0,19.0,-100.00,SSE,150,4.0,7.0,86,0.00,,,0.00,,2013-03-14 04:22:00,
2013-03-13 23:32:00,23.0,19.0,-100.00,SSE,150,6.0,7.0,86,0.00,,,0.00,,2013-03-14 04:32:00,
2013-03-13 23:42:00,23.0,19.0,-100.00,SE,145,7.0,9.0,86,0.00,,,0.00,,2013-03-14 04:42:00,
2013-03-13 23:52:00,24.0,19.0,-100.00,SE,145,6.0,8.0,86,0.00,,,0.00,,2013-03-14 04:52:00,